createdAt,value
2023-10-14T00:00:27.657Z,12.63
2023-10-14T00:03:34.187Z,12.60
2023-10-14T00:06:40.142Z,12.56
2023-10-14T00:09:45.978Z,12.58
2023-10-14T00:12:54.477Z,12.55
2023-10-14T00:15:57.615Z,12.42
2023-10-14T00:19:04.535Z,12.41
2023-10-14T00:22:08.699Z,12.36
2023-10-14T00:25:20.495Z,12.35
2023-10-14T00:28:25.181Z,12.29
2023-10-14T00:31:28.307Z,12.33
2023-10-14T00:34:31.273Z,12.35
2023-10-14T00:37:34.765Z,12.35
2023-10-14T00:40:39.366Z,12.36
2023-10-14T00:43:41.878Z,12.34
2023-10-14T00:46:52.022Z,12.26
2023-10-14T00:49:56.684Z,12.21
2023-10-14T00:52:59.578Z,12.21
2023-10-14T00:56:04.096Z,12.22
2023-10-14T00:59:06.876Z,12.20
2023-10-14T01:02:10.991Z,12.20
2023-10-14T01:05:20.306Z,12.14
2023-10-14T01:08:30.770Z,12.05
2023-10-14T01:11:36.344Z,12.06
2023-10-14T01:14:42.793Z,12.05
2023-10-14T01:17:46.263Z,12.03
2023-10-14T01:20:48.718Z,11.88
2023-10-14T01:23:59.498Z,11.88
2023-10-14T01:27:06.751Z,11.89
2023-10-14T01:30:20.940Z,11.78
2023-10-14T01:33:26.765Z,11.79
2023-10-14T01:36:33.831Z,11.81
2023-10-14T01:39:47.347Z,11.82
2023-10-14T01:42:51.370Z,11.74
2023-10-14T01:45:56.786Z,11.69
2023-10-14T01:49:10.079Z,11.69
2023-10-14T01:52:16.992Z,11.72
2023-10-14T01:55:22.114Z,11.72
2023-10-14T01:58:31.516Z,11.68
2023-10-14T02:01:37.774Z,11.58
2023-10-14T02:04:44.678Z,11.62
2023-10-14T02:07:47.362Z,11.62
2023-10-14T02:10:51.634Z,11.56
2023-10-14T02:13:54.402Z,11.62
2023-10-14T02:16:57.570Z,11.67
2023-10-14T02:20:11.115Z,11.68
2023-10-14T02:23:13.895Z,11.71
2023-10-14T02:26:25.412Z,11.74
2023-10-14T02:29:28.713Z,11.86
2023-10-14T02:32:31.420Z,11.94
2023-10-14T02:35:34.570Z,12.07
2023-10-14T02:38:37.849Z,12.18
2023-10-14T02:41:41.766Z,12.17
2023-10-14T02:45:05.719Z,12.24
2023-10-14T02:48:12.451Z,12.28
2023-10-14T02:51:17.572Z,12.33
2023-10-14T02:54:29.808Z,12.34
2023-10-14T02:57:32.556Z,12.34
2023-10-14T03:00:35.314Z,12.36
2023-10-14T03:03:38.048Z,12.43
2023-10-14T03:06:54.446Z,12.55
2023-10-14T03:10:19.638Z,12.63
2023-10-14T03:13:24.131Z,12.64
2023-10-14T03:16:26.844Z,12.60
2023-10-14T03:19:29.772Z,12.54
2023-10-14T03:22:32.815Z,12.57
2023-10-14T03:25:36.611Z,12.49
2023-10-14T03:28:39.457Z,12.45
2023-10-14T03:31:46.231Z,12.36
2023-10-14T03:34:49.031Z,12.29
2023-10-14T03:37:55.443Z,12.30
2023-10-14T03:41:27.298Z,12.30
2023-10-14T03:44:30.302Z,12.29
2023-10-14T03:47:35.694Z,12.27
2023-10-14T03:50:39.860Z,12.25
2023-10-14T03:53:42.524Z,12.23
2023-10-14T03:56:46.909Z,12.17
2023-10-14T03:59:50.094Z,12.12
2023-10-14T04:02:53.132Z,12.07
2023-10-14T04:06:01.111Z,11.96
2023-10-14T04:09:10.905Z,11.89
2023-10-14T04:12:34.450Z,11.75
2023-10-14T04:15:46.565Z,11.73
2023-10-14T04:18:49.622Z,11.66
2023-10-14T04:22:00.490Z,11.61
2023-10-14T04:25:16.555Z,11.62
2023-10-14T04:28:25.633Z,11.61
2023-10-14T04:31:40.416Z,11.56
2023-10-14T04:34:44.252Z,11.56
2023-10-14T04:37:52.636Z,11.55
2023-10-14T04:40:59.442Z,11.48
2023-10-14T04:44:03.941Z,11.43
2023-10-14T04:47:07.187Z,11.48
2023-10-14T04:50:14.690Z,11.48
2023-10-14T04:53:17.959Z,11.48
2023-10-14T04:56:24.402Z,11.43
2023-10-14T04:59:29.115Z,11.40
2023-10-14T05:02:32.527Z,11.40
2023-10-14T05:05:35.415Z,11.40
2023-10-14T05:08:49.589Z,11.40
2023-10-14T05:11:52.272Z,11.36
2023-10-14T05:14:56.808Z,11.34
2023-10-14T05:18:02.422Z,11.33
2023-10-14T05:21:13.907Z,11.37
2023-10-14T05:24:16.407Z,11.41
2023-10-14T05:27:22.819Z,11.46
2023-10-14T05:30:33.977Z,11.47
2023-10-14T05:33:37.244Z,11.48
2023-10-14T05:36:39.662Z,11.59
2023-10-14T05:39:42.784Z,11.62
2023-10-14T05:42:46.994Z,11.74
2023-10-14T05:45:50.310Z,11.86
2023-10-14T05:49:09.859Z,11.97
2023-10-14T05:52:26.123Z,12.18
2023-10-14T05:55:30.900Z,12.42
2023-10-14T05:58:35.293Z,12.65
2023-10-14T06:01:39.965Z,12.89
2023-10-14T06:04:47.182Z,13.06
2023-10-14T06:07:50.496Z,13.21
2023-10-14T06:10:54.966Z,13.56
2023-10-14T06:13:58.289Z,14.28
2023-10-14T06:17:01.096Z,15.17
2023-10-14T06:20:06.094Z,15.67
2023-10-14T06:23:09.363Z,16.49
2023-10-14T06:26:12.864Z,17.12
2023-10-14T06:29:18.297Z,17.04
2023-10-14T06:32:22.469Z,17.58
2023-10-14T06:35:28.323Z,17.86
2023-10-14T06:38:31.124Z,18.63
2023-10-14T06:41:35.917Z,19.50
2023-10-14T06:44:39.397Z,19.80
2023-10-14T06:47:47.963Z,20.25
2023-10-14T06:50:50.497Z,20.69
2023-10-14T06:53:53.374Z,21.34
2023-10-14T06:56:55.915Z,21.87
2023-10-14T06:59:58.789Z,21.97
2023-10-14T07:03:01.864Z,21.84
2023-10-14T07:06:06.398Z,21.98
2023-10-14T07:09:18.282Z,22.09
2023-10-14T07:12:22.547Z,22.66
2023-10-14T07:15:32.100Z,23.40
2023-10-14T07:18:37.705Z,23.85
2023-10-14T07:21:40.696Z,22.13
2023-10-14T07:24:43.685Z,23.85
2023-10-14T07:27:52.721Z,23.90
2023-10-14T07:30:58.177Z,23.25
2023-10-14T07:34:04.431Z,23.54
2023-10-14T07:37:07.283Z,24.02
2023-10-14T07:40:12.678Z,23.62
2023-10-14T07:43:15.562Z,24.01
2023-10-14T07:46:19.130Z,23.62
2023-10-14T07:49:22.480Z,24.83
2023-10-14T07:52:25.243Z,26.04
2023-10-14T07:55:33.673Z,26.21
2023-10-14T07:58:37.479Z,26.53
2023-10-14T08:01:41.467Z,26.04
2023-10-14T08:04:47.556Z,25.86
2023-10-14T08:07:53.355Z,25.20
2023-10-14T08:11:01.979Z,25.82
2023-10-14T08:14:07.396Z,26.74
2023-10-14T08:17:13.196Z,26.91
2023-10-14T08:20:20.100Z,27.15
2023-10-14T08:23:27.268Z,27.16
2023-10-14T08:26:31.083Z,28.33
2023-10-14T08:29:34.072Z,28.54
2023-10-14T08:32:38.878Z,28.87
2023-10-14T08:35:44.362Z,28.45
2023-10-14T08:38:48.984Z,28.47
2023-10-14T08:41:52.835Z,28.89
2023-10-14T08:44:59.517Z,28.67
2023-10-14T08:48:03.906Z,29.09
2023-10-14T08:51:09.493Z,28.90
2023-10-14T08:54:13.855Z,29.80
2023-10-14T08:57:16.818Z,29.51
2023-10-14T09:00:22.105Z,30.19
2023-10-14T09:03:26.185Z,29.69
2023-10-14T09:06:29.777Z,29.82
2023-10-14T09:09:33.814Z,28.37
2023-10-14T09:12:40.432Z,29.20
2023-10-14T09:15:49.352Z,28.63
2023-10-14T09:18:59.935Z,29.89
2023-10-14T09:22:09.725Z,29.47
2023-10-14T09:25:15.383Z,29.04
2023-10-14T09:28:21.535Z,29.46
2023-10-14T09:31:29.445Z,29.37
2023-10-14T09:34:32.111Z,29.56
2023-10-14T09:37:35.073Z,29.89
2023-10-14T09:40:38.138Z,29.58
2023-10-14T09:43:43.739Z,29.24
2023-10-14T09:46:54.085Z,29.34
2023-10-14T09:49:57.305Z,27.93
2023-10-14T09:53:04.573Z,28.40
2023-10-14T09:56:23.033Z,27.21
2023-10-14T09:59:35.029Z,28.29
2023-10-14T10:02:45.062Z,27.63
2023-10-14T10:06:07.007Z,28.01
2023-10-14T10:09:48.892Z,27.51
2023-10-14T10:12:56.983Z,28.07
2023-10-14T10:16:07.687Z,27.44
2023-10-14T10:19:13.222Z,27.03
2023-10-14T10:22:21.840Z,27.32
2023-10-14T10:25:54.132Z,27.79
2023-10-14T10:29:00.601Z,27.95
2023-10-14T10:32:14.438Z,27.94
2023-10-14T10:35:21.904Z,27.54
2023-10-14T10:38:25.542Z,27.57
2023-10-14T10:41:28.938Z,27.38
2023-10-14T10:44:35.636Z,27.65
2023-10-14T10:48:00.569Z,26.88
2023-10-14T10:51:03.960Z,26.54
2023-10-14T10:54:07.445Z,26.45
2023-10-14T10:57:12.793Z,26.33
2023-10-14T11:00:19.250Z,26.53
2023-10-14T11:03:28.978Z,26.08
2023-10-14T11:06:37.061Z,25.97
2023-10-14T11:09:40.769Z,26.36
2023-10-14T11:12:43.634Z,26.10
2023-10-14T11:15:50.097Z,25.69
2023-10-14T11:18:52.837Z,25.62
2023-10-14T11:21:59.490Z,25.58
2023-10-14T11:25:02.481Z,25.50
2023-10-14T11:28:07.052Z,25.23
2023-10-14T11:31:10.228Z,24.99
2023-10-14T11:34:14.033Z,25.05
2023-10-14T11:37:17.577Z,24.99
2023-10-14T11:40:20.845Z,24.85
2023-10-14T11:43:23.405Z,24.86
2023-10-14T11:46:26.455Z,24.93
2023-10-14T11:49:32.239Z,24.75
2023-10-14T11:52:35.260Z,24.86
2023-10-14T11:55:38.129Z,24.88
2023-10-14T11:58:44.414Z,24.66
2023-10-14T12:01:47.145Z,24.51
2023-10-14T12:04:50.245Z,24.45
2023-10-14T12:07:52.971Z,24.41
2023-10-14T12:10:58.003Z,24.24
2023-10-14T12:14:00.618Z,24.18
2023-10-14T12:17:06.265Z,24.12
2023-10-14T12:20:11.763Z,24.06
2023-10-14T12:23:16.035Z,24.01
2023-10-14T12:26:35.081Z,23.92
2023-10-14T12:29:41.734Z,23.84
2023-10-14T12:32:44.514Z,23.79
2023-10-14T12:35:52.477Z,23.85
2023-10-14T12:38:55.214Z,23.79
2023-10-14T12:42:03.674Z,23.78
2023-10-14T12:45:13.793Z,23.72
2023-10-14T12:48:17.313Z,23.60
2023-10-14T12:51:27.142Z,23.58
2023-10-14T12:54:35.835Z,23.67
2023-10-14T12:57:38.696Z,23.66
2023-10-14T13:00:44.123Z,23.56
2023-10-14T13:03:53.179Z,23.59
2023-10-14T13:06:57.765Z,23.58
2023-10-14T13:10:25.178Z,23.57
2023-10-14T13:13:28.075Z,23.49
2023-10-14T13:16:32.820Z,23.43
2023-10-14T13:19:37.288Z,23.47
2023-10-14T13:22:41.072Z,23.40
2023-10-14T13:25:46.536Z,23.37
2023-10-14T13:28:51.774Z,23.35
2023-10-14T13:31:56.782Z,23.31
2023-10-14T13:34:59.704Z,23.28
2023-10-14T13:38:05.079Z,23.23
2023-10-14T13:41:10.606Z,23.21
2023-10-14T13:44:13.613Z,23.18
2023-10-14T13:47:19.316Z,23.14
2023-10-14T13:50:23.607Z,23.08
2023-10-14T13:53:26.546Z,23.03
2023-10-14T13:56:29.692Z,23.01
2023-10-14T13:59:32.667Z,22.97
2023-10-14T14:02:35.636Z,22.92
2023-10-14T14:05:43.135Z,22.87
2023-10-14T14:08:51.893Z,22.88
2023-10-14T14:11:58.325Z,22.78
2023-10-14T14:15:01.155Z,22.74
2023-10-14T14:18:07.534Z,22.69
2023-10-14T14:21:13.426Z,22.65
2023-10-14T14:24:16.484Z,22.62
2023-10-14T14:27:19.244Z,22.55
2023-10-14T14:30:23.297Z,22.52
2023-10-14T14:33:28.533Z,22.43
2023-10-14T14:36:31.299Z,22.38
2023-10-14T14:39:33.811Z,22.29
2023-10-14T14:42:36.768Z,22.20
2023-10-14T14:45:39.869Z,22.16
2023-10-14T14:48:43.134Z,22.09
2023-10-14T14:51:45.846Z,21.99
2023-10-14T14:54:48.844Z,21.91
2023-10-14T14:57:54.654Z,21.83
2023-10-14T15:00:57.925Z,21.77
2023-10-14T15:04:01.106Z,21.67
2023-10-14T15:07:06.202Z,21.57
2023-10-14T15:10:09.442Z,21.47
2023-10-14T15:13:14.178Z,21.39
2023-10-14T15:16:28.972Z,21.30
2023-10-14T15:19:39.870Z,21.20
2023-10-14T15:22:42.477Z,21.11
2023-10-14T15:25:45.923Z,21.00
2023-10-14T15:28:52.851Z,20.90
2023-10-14T15:31:56.035Z,20.79
2023-10-14T15:34:58.790Z,20.66
2023-10-14T15:38:06.040Z,20.56
2023-10-14T15:41:08.777Z,20.45
2023-10-14T15:44:13.937Z,20.37
2023-10-14T15:47:16.586Z,20.26
2023-10-14T15:50:19.948Z,20.12
2023-10-14T15:53:22.658Z,19.98
2023-10-14T15:56:25.394Z,19.84
2023-10-14T15:59:28.363Z,19.71
2023-10-14T16:02:31.380Z,19.58
2023-10-14T16:05:36.846Z,19.43
2023-10-14T16:08:41.302Z,19.29
2023-10-14T16:11:44.736Z,19.16
2023-10-14T16:14:49.107Z,19.04
2023-10-14T16:17:53.807Z,18.88
2023-10-14T16:20:56.544Z,18.82
2023-10-14T16:23:59.463Z,18.72
2023-10-14T16:27:02.117Z,18.60
2023-10-14T16:30:10.454Z,18.50
2023-10-14T16:33:13.325Z,18.41
2023-10-14T16:36:17.622Z,18.32
2023-10-14T16:39:20.356Z,18.25
2023-10-14T16:42:26.138Z,18.17
2023-10-14T16:45:29.067Z,18.10
2023-10-14T16:48:32.003Z,18.00
2023-10-14T16:51:34.508Z,17.91
2023-10-14T16:54:39.792Z,17.82
2023-10-14T16:57:46.766Z,17.73
2023-10-14T17:00:52.175Z,17.64
2023-10-14T17:03:56.889Z,17.57
2023-10-14T17:07:02.093Z,17.51
2023-10-14T17:10:09.685Z,17.45
2023-10-14T17:13:12.892Z,17.42
2023-10-14T17:16:17.668Z,17.36
2023-10-14T17:19:22.416Z,17.34
2023-10-14T17:22:25.546Z,17.32
2023-10-14T17:25:30.386Z,17.22
2023-10-14T17:28:35.237Z,17.25
2023-10-14T17:31:38.768Z,17.20
2023-10-14T17:34:41.551Z,17.14
2023-10-14T17:37:48.155Z,17.09
2023-10-14T17:40:51.736Z,17.00
2023-10-14T17:43:55.826Z,16.94
2023-10-14T17:46:58.467Z,16.87
2023-10-14T17:50:01.318Z,16.77
2023-10-14T17:53:14.078Z,16.74
2023-10-14T17:56:17.515Z,16.65
2023-10-14T17:59:20.217Z,16.55
2023-10-14T18:02:23.134Z,16.52
2023-10-14T18:05:28.040Z,16.47
2023-10-14T18:08:30.883Z,16.45
2023-10-14T18:11:35.693Z,16.40
2023-10-14T18:14:41.304Z,16.36
2023-10-14T18:17:48.649Z,16.32
2023-10-14T18:20:53.048Z,16.25
2023-10-14T18:23:55.817Z,16.22
2023-10-14T18:26:58.508Z,16.20
2023-10-14T18:30:01.885Z,16.11
2023-10-14T18:33:07.007Z,16.03
2023-10-14T18:36:11.086Z,16.00
2023-10-14T18:39:15.831Z,16.01
2023-10-14T18:42:18.701Z,16.00
2023-10-14T18:45:22.628Z,15.97
2023-10-14T18:48:27.210Z,15.87
2023-10-14T18:51:32.218Z,15.75
2023-10-14T18:54:35.137Z,15.70
2023-10-14T18:57:38.139Z,15.60
2023-10-14T19:00:45.914Z,15.60
2023-10-14T19:03:48.784Z,15.61
2023-10-14T19:06:52.654Z,15.58
2023-10-14T19:09:57.463Z,15.61
2023-10-14T19:13:01.644Z,15.57
2023-10-14T19:16:05.692Z,15.55
2023-10-14T19:19:09.268Z,15.53
2023-10-14T19:22:13.337Z,15.48
2023-10-14T19:25:18.905Z,15.40
2023-10-14T19:28:25.159Z,15.41
2023-10-14T19:31:28.365Z,15.42
2023-10-14T19:34:31.162Z,15.30
2023-10-14T19:37:35.860Z,15.25
2023-10-14T19:40:40.768Z,15.19
2023-10-14T19:43:44.201Z,15.16
2023-10-14T19:46:48.350Z,15.13
2023-10-14T19:49:52.802Z,15.13
2023-10-14T19:52:56.804Z,15.15
2023-10-14T19:55:59.888Z,15.14
2023-10-14T19:59:02.397Z,15.19
2023-10-14T20:02:05.470Z,15.15
2023-10-14T20:05:09.625Z,15.27
2023-10-14T20:08:13.781Z,15.20
2023-10-14T20:11:16.553Z,15.18
2023-10-14T20:14:19.245Z,15.18
2023-10-14T20:17:22.694Z,15.22
2023-10-14T20:20:25.552Z,15.20
2023-10-14T20:23:28.700Z,15.17
2023-10-14T20:26:32.510Z,15.16
2023-10-14T20:29:38.906Z,15.10
2023-10-14T20:32:42.652Z,14.95
2023-10-14T20:35:46.352Z,14.92
2023-10-14T20:38:53.899Z,14.85
2023-10-14T20:42:00.403Z,14.79
2023-10-14T20:45:05.702Z,14.79
2023-10-14T20:48:08.907Z,14.73
2023-10-14T20:51:12.174Z,14.73
2023-10-14T20:54:15.631Z,14.65
2023-10-14T20:57:18.047Z,14.61
2023-10-14T21:00:27.515Z,14.58
2023-10-14T21:03:32.139Z,14.41
2023-10-14T21:06:39.491Z,14.43
2023-10-14T21:09:42.219Z,14.35
2023-10-14T21:12:47.072Z,14.40
2023-10-14T21:15:59.582Z,14.45
2023-10-14T21:19:02.650Z,14.45
2023-10-14T21:22:06.391Z,14.46
2023-10-14T21:25:16.521Z,14.51
2023-10-14T21:28:19.065Z,14.55
2023-10-14T21:31:21.997Z,14.62
2023-10-14T21:34:25.614Z,14.66
2023-10-14T21:37:28.622Z,14.69
2023-10-14T21:40:32.400Z,14.69
2023-10-14T21:43:35.959Z,14.71
2023-10-14T21:46:38.599Z,14.71
2023-10-14T21:49:41.756Z,14.70
2023-10-14T21:52:51.413Z,14.75
2023-10-14T21:55:54.801Z,14.79
2023-10-14T21:58:58.431Z,14.86
2023-10-14T22:02:02.347Z,15.00
2023-10-14T22:05:09.456Z,15.09
2023-10-14T22:08:13.285Z,15.19
2023-10-14T22:11:16.275Z,15.28
2023-10-14T22:14:18.977Z,15.37
2023-10-14T22:17:21.974Z,15.40
2023-10-14T22:20:28.053Z,15.51
2023-10-14T22:23:31.111Z,15.70
2023-10-14T22:26:34.371Z,15.84
2023-10-14T22:29:37.048Z,16.01
2023-10-14T22:32:42.686Z,16.18
2023-10-14T22:35:45.671Z,16.45
2023-10-14T22:38:48.194Z,16.56
2023-10-14T22:41:51.188Z,16.72
2023-10-14T22:44:54.540Z,16.81
2023-10-14T22:47:58.598Z,16.85
2023-10-14T22:51:01.316Z,16.94
2023-10-14T22:54:04.721Z,17.16
2023-10-14T22:57:08.126Z,17.19
2023-10-14T23:00:14.195Z,17.20
2023-10-14T23:03:16.850Z,17.19
2023-10-14T23:06:21.331Z,17.23
2023-10-14T23:09:24.023Z,17.32
2023-10-14T23:12:29.049Z,17.32
2023-10-14T23:15:33.038Z,17.33
2023-10-14T23:18:36.015Z,17.31
2023-10-14T23:21:43.008Z,17.30
2023-10-14T23:24:45.802Z,17.28
2023-10-14T23:27:48.303Z,17.23
2023-10-14T23:30:51.114Z,17.21
2023-10-14T23:33:53.727Z,17.15
2023-10-14T23:36:57.018Z,17.15
2023-10-14T23:39:59.502Z,17.11
2023-10-14T23:43:02.728Z,17.07
2023-10-14T23:46:09.322Z,17.05
2023-10-14T23:49:12.139Z,17.11
2023-10-14T23:52:14.574Z,17.17
2023-10-14T23:55:22.485Z,17.21
2023-10-14T23:58:25.361Z,17.26
